CheckWX is a tool to help pilots better visualize weather data.  It is not intended as a substitute for an official pre-flight weather briefing.

07:12:49 UTC

KHON TAF
Huron Regional Airport
Huron, South Dakota, USA
KHON 200520Z 2006/2106 12007KT P6SM VCSH BKN060 FM201100 14008KT P6SM -SHRA VCTS BKN050CB FM201500 16010KT P6SM BKN040 FM201700 29010KT P6SM BKN050 FM210000 33005KT P6SM BKN250

Jun-20@
06:00 UTC

Jun-20 @ 06:00 UTC

Jun-20@
11:00 UTC

Jun-20 @ 11:00 UTC

KHON 200520Z 2006/2106 12007KT P6SM VCSH BKN060
Wind
  • 120° at 7 KTS
Cloud Levels
  • Broken at 6,000' AGL

Jun-20@
11:00 UTC

Jun-20 @ 11:00 UTC

Jun-20@
15:00 UTC

Jun-20 @ 15:00 UTC

FM201100 14008KT P6SM -SHRA VCTS BKN050CB

From

From Standard forecast or significant change

Wind
  • 140° at 8 KTS
Conditions
Light Rain, Area Thunderstorm
Cloud Levels
  • Broken at 5,000' AGL

Jun-20@
15:00 UTC

Jun-20 @ 15:00 UTC

Jun-20@
17:00 UTC

Jun-20 @ 17:00 UTC

FM201500 16010KT P6SM BKN040

From

From Standard forecast or significant change

Wind
  • 160° at 10 KTS
Cloud Levels
  • Broken at 4,000' AGL

Jun-20@
17:00 UTC

Jun-20 @ 17:00 UTC

Jun-21@
00:00 UTC

Jun-21 @ 00:00 UTC

FM201700 29010KT P6SM BKN050

From

From Standard forecast or significant change

Wind
  • 290° at 10 KTS
Cloud Levels
  • Broken at 5,000' AGL

Jun-21@
00:00 UTC

Jun-21 @ 00:00 UTC

Jun-21@
06:00 UTC

Jun-21 @ 06:00 UTC

FM210000 33005KT P6SM BKN250

From

From Standard forecast or significant change

Wind
  • 330° at 5 KTS
Cloud Levels
  • Broken at 25,000' AGL